sensor_id;sensor_type;location;lat;lon;timestamp;pressure;altitude;pressure_sealevel;temperature;humidity
36834;BME280;48003;52.084;5.224;2023-03-31T00:00:51;100385.0;;;12.24;81.98
36834;BME280;48003;52.084;5.224;2023-03-31T00:02:27;100362.0;;;12.87;79.94
36834;BME280;48003;52.084;5.224;2023-03-31T00:04:03;100366.0;;;12.25;82.79
36834;BME280;48003;52.084;5.224;2023-03-31T00:07:16;100364.0;;;12.17;83.47
36834;BME280;48003;52.084;5.224;2023-03-31T00:08:52;100367.0;;;12.29;83.25
36834;BME280;48003;52.084;5.224;2023-03-31T00:10:30;100358.0;;;12.28;83.52
36834;BME280;48003;52.084;5.224;2023-03-31T00:12:07;100349.0;;;12.53;82.16
36834;BME280;48003;52.084;5.224;2023-03-31T00:15:19;100344.0;;;12.45;83.11
36834;BME280;48003;52.084;5.224;2023-03-31T00:16:55;100343.0;;;12.53;82.5
36834;BME280;48003;52.084;5.224;2023-03-31T00:18:32;100337.0;;;12.54;82.53
36834;BME280;48003;52.084;5.224;2023-03-31T00:21:45;100334.0;;;12.26;83.87
36834;BME280;48003;52.084;5.224;2023-03-31T00:23:23;100325.0;;;12.63;82.42
36834;BME280;48003;52.084;5.224;2023-03-31T00:24:59;100321.0;;;12.5;83.1
36834;BME280;48003;52.084;5.224;2023-03-31T00:26:36;100312.0;;;12.38;83.37
36834;BME280;48003;52.084;5.224;2023-03-31T00:29:50;100308.0;;;12.43;83.38
36834;BME280;48003;52.084;5.224;2023-03-31T00:31:26;100302.0;;;12.7;82.02
36834;BME280;48003;52.084;5.224;2023-03-31T00:33:03;100299.0;;;12.62;82.41
36834;BME280;48003;52.084;5.224;2023-03-31T00:36:16;100289.0;;;12.69;82.21
36834;BME280;48003;52.084;5.224;2023-03-31T00:37:53;100291.0;;;12.63;82.44
36834;BME280;48003;52.084;5.224;2023-03-31T00:39:29;100285.0;;;12.39;83.5
36834;BME280;48003;52.084;5.224;2023-03-31T00:42:42;100282.0;;;12.6;83.2
36834;BME280;48003;52.084;5.224;2023-03-31T00:44:20;100280.0;;;12.69;82.47
36834;BME280;48003;52.084;5.224;2023-03-31T00:46:05;100277.0;;;12.69;82.27
36834;BME280;48003;52.084;5.224;2023-03-31T00:47:48;100271.0;;;12.48;83.27
36834;BME280;48003;52.084;5.224;2023-03-31T00:51:06;100268.0;;;12.54;83.58
36834;BME280;48003;52.084;5.224;2023-03-31T00:52:42;100260.0;;;12.65;83.17
36834;BME280;48003;52.084;5.224;2023-03-31T00:54:22;100255.0;;;12.4;83.85
36834;BME280;48003;52.084;5.224;2023-03-31T00:56:05;100249.0;;;12.53;83.37
36834;BME280;48003;52.084;5.224;2023-03-31T00:59:25;100249.0;;;12.5;84.04
36834;BME280;48003;52.084;5.224;2023-03-31T01:01:03;100239.0;;;12.73;83.08
36834;BME280;48003;52.084;5.224;2023-03-31T01:02:39;100233.0;;;12.79;82.88
36834;BME280;48003;52.084;5.224;2023-03-31T01:04:17;100233.0;;;13.09;81.63
36834;BME280;48003;52.084;5.224;2023-03-31T01:07:37;100225.0;;;12.77;82.56
36834;BME280;48003;52.084;5.224;2023-03-31T01:09:16;100232.0;;;12.89;82.76
36834;BME280;48003;52.084;5.224;2023-03-31T01:10:56;100224.0;;;12.7;83.51
36834;BME280;48003;52.084;5.224;2023-03-31T01:14:15;100225.0;;;12.72;83.12
36834;BME280;48003;52.084;5.224;2023-03-31T01:15:51;100222.0;;;12.77;83.24
36834;BME280;48003;52.084;5.224;2023-03-31T01:17:28;100214.0;;;12.53;84.77
36834;BME280;48003;52.084;5.224;2023-03-31T01:19:11;100212.0;;;12.78;83.83
36834;BME280;48003;52.084;5.224;2023-03-31T01:26:12;100200.0;;;12.73;84.4
36834;BME280;48003;52.084;5.224;2023-03-31T01:28:13;100184.0;;;12.76;84.75
36834;BME280;48003;52.084;5.224;2023-03-31T01:30:11;100180.0;;;12.68;85.62
36834;BME280;48003;52.084;5.224;2023-03-31T01:32:26;100178.0;;;12.54;86.29
36834;BME280;48003;52.084;5.224;2023-03-31T01:35:26;100173.0;;;12.82;85.18
36834;BME280;48003;52.084;5.224;2023-03-31T01:39:49;100174.0;;;12.82;85.35
36834;BME280;48003;52.084;5.224;2023-03-31T01:41:48;100166.0;;;12.49;87.13
36834;BME280;48003;52.084;5.224;2023-03-31T01:43:35;100156.0;;;12.54;87.1
36834;BME280;48003;52.084;5.224;2023-03-31T01:45:25;100148.0;;;12.67;87.19
36834;BME280;48003;52.084;5.224;2023-03-31T01:47:08;100144.0;;;12.48;87.97
36834;BME280;48003;52.084;5.224;2023-03-31T01:48:53;100142.0;;;12.63;87.14
36834;BME280;48003;52.084;5.224;2023-03-31T01:50:37;100137.0;;;12.96;85.89
36834;BME280;48003;52.084;5.224;2023-03-31T01:54:05;100130.0;;;12.78;86.2
36834;BME280;48003;52.084;5.224;2023-03-31T01:55:50;100132.0;;;12.44;88.55
36834;BME280;48003;52.084;5.224;2023-03-31T01:57:35;100128.0;;;12.57;88.0
36834;BME280;48003;52.084;5.224;2023-03-31T01:59:15;100125.0;;;12.59;87.74
36834;BME280;48003;52.084;5.224;2023-03-31T02:00:57;100111.0;;;12.7;87.89
36834;BME280;48003;52.084;5.224;2023-03-31T02:04:21;100113.0;;;12.55;88.59
36834;BME280;48003;52.084;5.224;2023-03-31T02:06:02;100110.0;;;12.6;88.59
36834;BME280;48003;52.084;5.224;2023-03-31T02:07:46;100108.0;;;12.59;88.77
36834;BME280;48003;52.084;5.224;2023-03-31T02:09:29;100098.0;;;13.02;86.76
36834;BME280;48003;52.084;5.224;2023-03-31T02:12:46;100091.0;;;12.54;88.55
36834;BME280;48003;52.084;5.224;2023-03-31T02:14:27;100090.0;;;12.62;88.41
36834;BME280;48003;52.084;5.224;2023-03-31T02:16:09;100080.0;;;12.56;88.66
36834;BME280;48003;52.084;5.224;2023-03-31T02:17:51;100076.0;;;12.45;89.5
36834;BME280;48003;52.084;5.224;2023-03-31T02:21:11;100074.0;;;12.42;90.33
36834;BME280;48003;52.084;5.224;2023-03-31T02:22:49;100064.0;;;12.98;87.66
36834;BME280;48003;52.084;5.224;2023-03-31T02:24:29;100069.0;;;13.03;87.51
36834;BME280;48003;52.084;5.224;2023-03-31T02:26:10;100052.0;;;12.78;88.49
36834;BME280;48003;52.084;5.224;2023-03-31T02:29:32;100052.0;;;12.62;89.81
36834;BME280;48003;52.084;5.224;2023-03-31T02:31:20;100050.0;;;12.51;90.81
36834;BME280;48003;52.084;5.224;2023-03-31T02:33:02;100042.0;;;12.46;91.61
36834;BME280;48003;52.084;5.224;2023-03-31T02:34:38;100035.0;;;12.58;91.58
36834;BME280;48003;52.084;5.224;2023-03-31T02:37:50;100026.0;;;12.7;91.14
36834;BME280;48003;52.084;5.224;2023-03-31T02:39:29;100022.0;;;12.76;90.69
36834;BME280;48003;52.084;5.224;2023-03-31T02:41:09;100018.0;;;12.65;91.41
36834;BME280;48003;52.084;5.224;2023-03-31T02:46:00;100007.0;;;13.04;89.96
36834;BME280;48003;52.084;5.224;2023-03-31T02:47:36;99998.0;;;12.85;90.88
36834;BME280;48003;52.084;5.224;2023-03-31T02:49:12;99992.0;;;12.73;90.68
36834;BME280;48003;52.084;5.224;2023-03-31T02:53:57;99978.0;;;12.51;93.33
36834;BME280;48003;52.084;5.224;2023-03-31T02:55:53;99972.0;;;12.62;93.15
36834;BME280;48003;52.084;5.224;2023-03-31T02:57:47;99978.0;;;12.71;92.54
36834;BME280;48003;52.084;5.224;2023-03-31T03:00:42;99961.0;;;12.44;93.7
36834;BME280;48003;52.084;5.224;2023-03-31T03:02:36;99951.0;;;12.32;94.38
36834;BME280;48003;52.084;5.224;2023-03-31T03:04:34;99944.0;;;12.31;94.97
36834;BME280;48003;52.084;5.224;2023-03-31T03:06:47;99932.0;;;12.47;94.86
36834;BME280;48003;52.084;5.224;2023-03-31T03:08:36;99928.0;;;12.33;94.78
36834;BME280;48003;52.084;5.224;2023-03-31T03:10:26;99920.0;;;12.16;95.54
36834;BME280;48003;52.084;5.224;2023-03-31T03:12:13;99921.0;;;12.29;94.9
36834;BME280;48003;52.084;5.224;2023-03-31T03:15:44;99918.0;;;12.19;95.76
36834;BME280;48003;52.084;5.224;2023-03-31T03:17:25;99911.0;;;12.2;95.74
36834;BME280;48003;52.084;5.224;2023-03-31T03:19:05;99910.0;;;12.26;95.93
36834;BME280;48003;52.084;5.224;2023-03-31T03:20:42;99905.0;;;12.5;94.19
36834;BME280;48003;52.084;5.224;2023-03-31T03:22:19;99902.0;;;12.27;94.97
36834;BME280;48003;52.084;5.224;2023-03-31T03:25:31;99897.0;;;12.17;95.72
36834;BME280;48003;52.084;5.224;2023-03-31T03:27:07;99890.0;;;12.14;96.18
36834;BME280;48003;52.084;5.224;2023-03-31T03:28:43;99889.0;;;12.11;95.92
36834;BME280;48003;52.084;5.224;2023-03-31T03:31:55;99887.0;;;12.1;96.26
36834;BME280;48003;52.084;5.224;2023-03-31T03:33:32;99874.0;;;12.25;94.9
36834;BME280;48003;52.084;5.224;2023-03-31T03:35:08;99872.0;;;12.24;95.83
36834;BME280;48003;52.084;5.224;2023-03-31T03:38:22;99864.0;;;12.03;96.66
36834;BME280;48003;52.084;5.224;2023-03-31T03:39:58;99855.0;;;12.13;95.63
36834;BME280;48003;52.084;5.224;2023-03-31T03:41:34;99849.0;;;12.09;96.2
36834;BME280;48003;52.084;5.224;2023-03-31T03:44:48;99847.0;;;12.0;95.88
36834;BME280;48003;52.084;5.224;2023-03-31T03:46:24;99851.0;;;11.86;97.4
36834;BME280;48003;52.084;5.224;2023-03-31T03:48:00;99847.0;;;11.95;96.9
36834;BME280;48003;52.084;5.224;2023-03-31T03:49:36;99848.0;;;12.03;96.82
36834;BME280;48003;52.084;5.224;2023-03-31T03:52:48;99837.0;;;11.9;97.05
36834;BME280;48003;52.084;5.224;2023-03-31T03:54:24;99838.0;;;12.09;96.53
36834;BME280;48003;52.084;5.224;2023-03-31T03:56:00;99835.0;;;11.95;97.01
36834;BME280;48003;52.084;5.224;2023-03-31T03:59:14;99833.0;;;12.08;96.59
36834;BME280;48003;52.084;5.224;2023-03-31T04:00:50;99824.0;;;11.72;98.37
36834;BME280;48003;52.084;5.224;2023-03-31T04:02:26;99822.0;;;11.76;98.7
36834;BME280;48003;52.084;5.224;2023-03-31T04:05:38;99806.0;;;11.6;99.29
36834;BME280;48003;52.084;5.224;2023-03-31T04:07:14;99796.0;;;11.86;98.44
36834;BME280;48003;52.084;5.224;2023-03-31T04:08:50;99793.0;;;11.7;98.15
36834;BME280;48003;52.084;5.224;2023-03-31T04:10:26;99784.0;;;11.6;98.86
36834;BME280;48003;52.084;5.224;2023-03-31T04:13:39;99781.0;;;11.48;98.95
36834;BME280;48003;52.084;5.224;2023-03-31T04:15:15;99773.0;;;11.65;98.6
36834;BME280;48003;52.084;5.224;2023-03-31T04:16:51;99765.0;;;11.74;98.24
36834;BME280;48003;52.084;5.224;2023-03-31T04:20:05;99759.0;;;12.08;96.55
36834;BME280;48003;52.084;5.224;2023-03-31T04:21:44;99756.0;;;11.92;96.2
36834;BME280;48003;52.084;5.224;2023-03-31T04:23:20;99745.0;;;11.83;97.06
36834;BME280;48003;52.084;5.224;2023-03-31T04:26:34;99738.0;;;12.01;96.21
36834;BME280;48003;52.084;5.224;2023-03-31T04:28:10;99734.0;;;11.86;96.89
36834;BME280;48003;52.084;5.224;2023-03-31T04:29:46;99731.0;;;11.82;96.83
36834;BME280;48003;52.084;5.224;2023-03-31T04:31:22;99724.0;;;11.8;97.18
36834;BME280;48003;52.084;5.224;2023-03-31T04:34:37;99721.0;;;11.91;97.01
36834;BME280;48003;52.084;5.224;2023-03-31T04:36:14;99716.0;;;11.81;97.31
36834;BME280;48003;52.084;5.224;2023-03-31T04:37:51;99710.0;;;11.74;97.68
36834;BME280;48003;52.084;5.224;2023-03-31T04:41:04;99703.0;;;11.74;97.8
36834;BME280;48003;52.084;5.224;2023-03-31T04:42:40;99705.0;;;11.89;97.08
36834;BME280;48003;52.084;5.224;2023-03-31T04:44:16;99700.0;;;11.74;97.91
36834;BME280;48003;52.084;5.224;2023-03-31T04:47:28;99693.0;;;11.65;98.6
36834;BME280;48003;52.084;5.224;2023-03-31T04:49:04;99686.0;;;11.68;98.91
36834;BME280;48003;52.084;5.224;2023-03-31T04:50:40;99685.0;;;11.74;98.45
36834;BME280;48003;52.084;5.224;2023-03-31T04:52:16;99681.0;;;11.89;97.6
36834;BME280;48003;52.084;5.224;2023-03-31T04:55:29;99671.0;;;11.93;97.57
36834;BME280;48003;52.084;5.224;2023-03-31T04:57:05;99664.0;;;11.9;97.23
36834;BME280;48003;52.084;5.224;2023-03-31T04:58:42;99658.0;;;11.96;97.1
36834;BME280;48003;52.084;5.224;2023-03-31T05:01:56;99652.0;;;11.9;97.46
36834;BME280;48003;52.084;5.224;2023-03-31T05:03:32;99651.0;;;11.93;97.25
36834;BME280;48003;52.084;5.224;2023-03-31T05:05:09;99651.0;;;11.9;98.04
36834;BME280;48003;52.084;5.224;2023-03-31T05:08:21;99645.0;;;11.97;97.25
36834;BME280;48003;52.084;5.224;2023-03-31T05:09:57;99643.0;;;11.86;97.74
36834;BME280;48003;52.084;5.224;2023-03-31T05:11:33;99634.0;;;11.82;97.74
36834;BME280;48003;52.084;5.224;2023-03-31T05:14:46;99630.0;;;11.84;97.08
36834;BME280;48003;52.084;5.224;2023-03-31T05:16:22;99630.0;;;11.89;97.02
36834;BME280;48003;52.084;5.224;2023-03-31T05:17:58;99627.0;;;11.98;96.61
36834;BME280;48003;52.084;5.224;2023-03-31T05:19:35;99623.0;;;11.96;96.57
36834;BME280;48003;52.084;5.224;2023-03-31T05:22:50;99624.0;;;11.66;97.58
36834;BME280;48003;52.084;5.224;2023-03-31T05:24:27;99622.0;;;11.62;98.29
36834;BME280;48003;52.084;5.224;2023-03-31T05:26:03;99618.0;;;11.76;98.04
36834;BME280;48003;52.084;5.224;2023-03-31T05:29:16;99624.0;;;11.68;97.64
36834;BME280;48003;52.084;5.224;2023-03-31T05:30:52;99603.0;;;11.94;97.15
36834;BME280;48003;52.084;5.224;2023-03-31T05:32:28;99606.0;;;11.83;96.9
36834;BME280;48003;52.084;5.224;2023-03-31T05:35:43;99605.0;;;11.72;97.82
36834;BME280;48003;52.084;5.224;2023-03-31T05:37:19;99600.0;;;11.64;98.08
36834;BME280;48003;52.084;5.224;2023-03-31T05:38:55;99597.0;;;11.62;98.38
36834;BME280;48003;52.084;5.224;2023-03-31T05:40:31;99594.0;;;11.71;97.97
36834;BME280;48003;52.084;5.224;2023-03-31T05:43:43;99595.0;;;11.81;97.67
36834;BME280;48003;52.084;5.224;2023-03-31T05:45:19;99588.0;;;11.82;97.52
36834;BME280;48003;52.084;5.224;2023-03-31T05:46:55;99581.0;;;11.98;97.18
36834;BME280;48003;52.084;5.224;2023-03-31T05:50:08;99594.0;;;11.77;97.24
36834;BME280;48003;52.084;5.224;2023-03-31T05:51:45;99584.0;;;11.7;97.97
36834;BME280;48003;52.084;5.224;2023-03-31T05:53:22;99580.0;;;11.63;97.95
36834;BME280;48003;52.084;5.224;2023-03-31T05:56:34;99568.0;;;11.79;97.91
36834;BME280;48003;52.084;5.224;2023-03-31T05:58:10;99575.0;;;11.84;96.31
36834;BME280;48003;52.084;5.224;2023-03-31T05:59:46;99563.0;;;11.8;96.88
36834;BME280;48003;52.084;5.224;2023-03-31T06:01:22;99559.0;;;11.92;96.11
36834;BME280;48003;52.084;5.224;2023-03-31T06:04:35;99558.0;;;11.72;97.13
36834;BME280;48003;52.084;5.224;2023-03-31T06:06:11;99557.0;;;11.88;96.87
36834;BME280;48003;52.084;5.224;2023-03-31T06:07:48;99550.0;;;11.74;96.64
36834;BME280;48003;52.084;5.224;2023-03-31T06:11:03;99549.0;;;11.67;96.89
36834;BME280;48003;52.084;5.224;2023-03-31T06:12:40;99553.0;;;11.78;95.87
36834;BME280;48003;52.084;5.224;2023-03-31T06:14:16;99550.0;;;11.89;95.73
36834;BME280;48003;52.084;5.224;2023-03-31T06:17:30;99543.0;;;11.69;96.48
36834;BME280;48003;52.084;5.224;2023-03-31T06:19:06;99551.0;;;11.71;96.2
36834;BME280;48003;52.084;5.224;2023-03-31T06:20:43;99543.0;;;11.86;95.83
36834;BME280;48003;52.084;5.224;2023-03-31T06:22:19;99547.0;;;11.88;95.08
36834;BME280;48003;52.084;5.224;2023-03-31T06:25:31;99549.0;;;12.02;93.94
36834;BME280;48003;52.084;5.224;2023-03-31T06:27:07;99534.0;;;11.81;94.69
36834;BME280;48003;52.084;5.224;2023-03-31T06:28:43;99535.0;;;12.05;93.46
36834;BME280;48003;52.084;5.224;2023-03-31T06:31:55;99536.0;;;11.94;93.65
36834;BME280;48003;52.084;5.224;2023-03-31T06:33:31;99535.0;;;11.95;93.6
36834;BME280;48003;52.084;5.224;2023-03-31T06:35:08;99534.0;;;12.1;93.87
36834;BME280;48003;52.084;5.224;2023-03-31T06:38:20;99534.0;;;12.08;93.52
36834;BME280;48003;52.084;5.224;2023-03-31T06:39:56;99524.0;;;12.26;92.61
36834;BME280;48003;52.084;5.224;2023-03-31T06:41:32;99531.0;;;12.02;92.87
36834;BME280;48003;52.084;5.224;2023-03-31T06:44:44;99522.0;;;12.07;93.28
36834;BME280;48003;52.084;5.224;2023-03-31T06:46:20;99530.0;;;11.99;93.45
36834;BME280;48003;52.084;5.224;2023-03-31T06:47:56;99530.0;;;11.87;94.72
36834;BME280;48003;52.084;5.224;2023-03-31T06:49:32;99521.0;;;12.01;94.59
36834;BME280;48003;52.084;5.224;2023-03-31T06:52:46;99525.0;;;12.11;94.23
36834;BME280;48003;52.084;5.224;2023-03-31T06:54:22;99517.0;;;12.32;93.29
36834;BME280;48003;52.084;5.224;2023-03-31T06:55:58;99517.0;;;12.2;92.81
36834;BME280;48003;52.084;5.224;2023-03-31T06:59:11;99514.0;;;12.03;93.77
36834;BME280;48003;52.084;5.224;2023-03-31T07:00:48;99514.0;;;12.07;93.85
36834;BME280;48003;52.084;5.224;2023-03-31T07:02:24;99508.0;;;12.06;94.0
36834;BME280;48003;52.084;5.224;2023-03-31T07:05:34;99508.0;;;12.04;94.63
36834;BME280;48003;52.084;5.224;2023-03-31T07:07:11;99507.0;;;11.91;94.5
36834;BME280;48003;52.084;5.224;2023-03-31T07:08:47;99512.0;;;11.87;95.7
36834;BME280;48003;52.084;5.224;2023-03-31T07:10:25;99515.0;;;12.43;93.17
36834;BME280;48003;52.084;5.224;2023-03-31T07:13:37;99509.0;;;12.57;92.21
36834;BME280;48003;52.084;5.224;2023-03-31T07:15:14;99502.0;;;12.2;93.72
36834;BME280;48003;52.084;5.224;2023-03-31T07:16:51;99500.0;;;12.27;94.0
36834;BME280;48003;52.084;5.224;2023-03-31T07:20:03;99498.0;;;12.38;93.69
36834;BME280;48003;52.084;5.224;2023-03-31T07:21:40;99501.0;;;12.26;93.88
36834;BME280;48003;52.084;5.224;2023-03-31T07:23:16;99502.0;;;12.41;93.57
36834;BME280;48003;52.084;5.224;2023-03-31T07:26:29;99499.0;;;12.43;92.92
36834;BME280;48003;52.084;5.224;2023-03-31T07:28:05;99492.0;;;12.29;92.94
36834;BME280;48003;52.084;5.224;2023-03-31T07:29:41;99495.0;;;11.88;95.66
36834;BME280;48003;52.084;5.224;2023-03-31T07:31:17;99487.0;;;11.9;96.37
36834;BME280;48003;52.084;5.224;2023-03-31T07:34:29;99496.0;;;11.93;96.62
36834;BME280;48003;52.084;5.224;2023-03-31T07:36:06;99482.0;;;11.94;96.35
36834;BME280;48003;52.084;5.224;2023-03-31T07:37:44;99482.0;;;11.97;96.6
36834;BME280;48003;52.084;5.224;2023-03-31T07:40:58;99488.0;;;12.03;96.69
36834;BME280;48003;52.084;5.224;2023-03-31T07:42:35;99486.0;;;11.92;97.38
36834;BME280;48003;52.084;5.224;2023-03-31T07:44:11;99490.0;;;12.0;96.83
36834;BME280;48003;52.084;5.224;2023-03-31T07:47:24;99491.0;;;12.26;96.21
36834;BME280;48003;52.084;5.224;2023-03-31T07:49:00;99490.0;;;12.25;95.47
36834;BME280;48003;52.084;5.224;2023-03-31T07:50:37;99483.0;;;12.13;96.04
36834;BME280;48003;52.084;5.224;2023-03-31T07:52:13;99478.0;;;11.89;97.59
36834;BME280;48003;52.084;5.224;2023-03-31T07:55:25;99482.0;;;11.92;98.27
36834;BME280;48003;52.084;5.224;2023-03-31T07:57:02;99480.0;;;11.8;98.58
36834;BME280;48003;52.084;5.224;2023-03-31T07:58:37;99472.0;;;12.01;98.66
36834;BME280;48003;52.084;5.224;2023-03-31T08:01:51;99470.0;;;12.31;96.07
36834;BME280;48003;52.084;5.224;2023-03-31T08:03:27;99471.0;;;12.29;96.65
36834;BME280;48003;52.084;5.224;2023-03-31T08:05:03;99464.0;;;12.42;95.64
36834;BME280;48003;52.084;5.224;2023-03-31T08:08:16;99465.0;;;12.03;97.03
36834;BME280;48003;52.084;5.224;2023-03-31T08:09:53;99462.0;;;12.24;97.38
36834;BME280;48003;52.084;5.224;2023-03-31T08:11:29;99460.0;;;11.98;98.85
36834;BME280;48003;52.084;5.224;2023-03-31T08:14:41;99451.0;;;12.25;97.96
36834;BME280;48003;52.084;5.224;2023-03-31T08:16:17;99453.0;;;12.2;98.0
36834;BME280;48003;52.084;5.224;2023-03-31T08:17:53;99458.0;;;12.37;97.16
36834;BME280;48003;52.084;5.224;2023-03-31T08:19:29;99449.0;;;12.48;96.3
36834;BME280;48003;52.084;5.224;2023-03-31T08:22:43;99447.0;;;12.41;96.45
36834;BME280;48003;52.084;5.224;2023-03-31T08:24:19;99443.0;;;12.53;96.17
36834;BME280;48003;52.084;5.224;2023-03-31T08:26:06;99439.0;;;12.63;95.76
36834;BME280;48003;52.084;5.224;2023-03-31T08:27:44;99432.0;;;13.0;94.04
36834;BME280;48003;52.084;5.224;2023-03-31T08:31:02;99428.0;;;12.71;94.45
36834;BME280;48003;52.084;5.224;2023-03-31T08:32:38;99431.0;;;12.52;95.9
36834;BME280;48003;52.084;5.224;2023-03-31T08:37:27;99430.0;;;12.36;96.95
36834;BME280;48003;52.084;5.224;2023-03-31T08:39:04;99426.0;;;12.63;95.51
36834;BME280;48003;52.084;5.224;2023-03-31T08:44:02;99415.0;;;12.83;94.24
36834;BME280;48003;52.084;5.224;2023-03-31T08:45:44;99414.0;;;12.7;94.51
36834;BME280;48003;52.084;5.224;2023-03-31T08:47:23;99415.0;;;12.75;95.15
36834;BME280;48003;52.084;5.224;2023-03-31T08:49:03;99408.0;;;12.86;94.3
36834;BME280;48003;52.084;5.224;2023-03-31T08:52:26;99416.0;;;12.71;95.41
36834;BME280;48003;52.084;5.224;2023-03-31T08:54:11;99405.0;;;13.01;94.98
36834;BME280;48003;52.084;5.224;2023-03-31T08:55:52;99408.0;;;12.8;95.71
36834;BME280;48003;52.084;5.224;2023-03-31T08:57:34;99402.0;;;12.91;94.91
36834;BME280;48003;52.084;5.224;2023-03-31T08:59:19;99398.0;;;12.96;94.88
36834;BME280;48003;52.084;5.224;2023-03-31T09:02:57;99401.0;;;12.76;95.9
36834;BME280;48003;52.084;5.224;2023-03-31T09:04:47;99399.0;;;12.8;96.32
36834;BME280;48003;52.084;5.224;2023-03-31T09:06:51;99402.0;;;12.7;96.05
36834;BME280;48003;52.084;5.224;2023-03-31T09:08:34;99397.0;;;12.8;95.61
36834;BME280;48003;52.084;5.224;2023-03-31T09:10:26;99405.0;;;12.67;95.74
36834;BME280;48003;52.084;5.224;2023-03-31T09:12:09;99405.0;;;12.74;95.73
36834;BME280;48003;52.084;5.224;2023-03-31T09:14:14;99392.0;;;12.82;96.41
36834;BME280;48003;52.084;5.224;2023-03-31T09:15:58;99408.0;;;12.82;95.58
36834;BME280;48003;52.084;5.224;2023-03-31T09:19:33;99389.0;;;13.02;94.74
36834;BME280;48003;52.084;5.224;2023-03-31T09:21:18;99390.0;;;13.0;94.22
36834;BME280;48003;52.084;5.224;2023-03-31T09:23:00;99389.0;;;13.15;93.08
36834;BME280;48003;52.084;5.224;2023-03-31T09:24:47;99386.0;;;13.25;93.86
36834;BME280;48003;52.084;5.224;2023-03-31T09:26:33;99392.0;;;13.15;92.62
36834;BME280;48003;52.084;5.224;2023-03-31T09:29:57;99390.0;;;13.26;93.05
36834;BME280;48003;52.084;5.224;2023-03-31T09:31:37;99383.0;;;13.39;91.6
36834;BME280;48003;52.084;5.224;2023-03-31T09:33:18;99377.0;;;13.39;90.68
36834;BME280;48003;52.084;5.224;2023-03-31T09:35:16;99386.0;;;13.44;91.3
36834;BME280;48003;52.084;5.224;2023-03-31T09:36:53;99399.0;;;13.46;89.66
36834;BME280;48003;52.084;5.224;2023-03-31T09:40:05;99380.0;;;13.62;89.1
36834;BME280;48003;52.084;5.224;2023-03-31T09:41:51;99380.0;;;13.69;89.64
36834;BME280;48003;52.084;5.224;2023-03-31T09:43:29;99387.0;;;13.7;89.06
36834;BME280;48003;52.084;5.224;2023-03-31T09:46:50;99380.0;;;13.86;88.24
36834;BME280;48003;52.084;5.224;2023-03-31T09:48:31;99386.0;;;13.99;86.46
36834;BME280;48003;52.084;5.224;2023-03-31T09:50:10;99380.0;;;13.81;87.3
36834;BME280;48003;52.084;5.224;2023-03-31T09:51:49;99380.0;;;13.88;84.98
36834;BME280;48003;52.084;5.224;2023-03-31T09:53:39;99377.0;;;13.68;86.64
36834;BME280;48003;52.084;5.224;2023-03-31T09:56:57;99373.0;;;13.78;86.07
36834;BME280;48003;52.084;5.224;2023-03-31T09:58:39;99384.0;;;13.89;85.93
36834;BME280;48003;52.084;5.224;2023-03-31T10:00:18;99383.0;;;13.72;85.38
36834;BME280;48003;52.084;5.224;2023-03-31T10:01:58;99364.0;;;13.66;86.22
36834;BME280;48003;52.084;5.224;2023-03-31T10:05:27;99367.0;;;13.8;86.13
36834;BME280;48003;52.084;5.224;2023-03-31T10:07:04;99368.0;;;13.82;84.93
36834;BME280;48003;52.084;5.224;2023-03-31T10:08:41;99367.0;;;13.8;86.19
36834;BME280;48003;52.084;5.224;2023-03-31T10:10:28;99364.0;;;13.8;85.81
36834;BME280;48003;52.084;5.224;2023-03-31T10:13:54;99361.0;;;14.06;84.58
36834;BME280;48003;52.084;5.224;2023-03-31T10:15:36;99359.0;;;13.72;83.87
36834;BME280;48003;52.084;5.224;2023-03-31T10:17:14;99353.0;;;13.7;83.93
36834;BME280;48003;52.084;5.224;2023-03-31T10:18:52;99356.0;;;13.73;83.46
36834;BME280;48003;52.084;5.224;2023-03-31T10:22:15;99367.0;;;13.92;82.25
36834;BME280;48003;52.084;5.224;2023-03-31T10:23:52;99341.0;;;13.94;82.32
36834;BME280;48003;52.084;5.224;2023-03-31T10:25:29;99337.0;;;13.94;82.61
36834;BME280;48003;52.084;5.224;2023-03-31T10:27:07;99330.0;;;14.13;82.52
36834;BME280;48003;52.084;5.224;2023-03-31T10:30:31;99327.0;;;14.29;79.23
36834;BME280;48003;52.084;5.224;2023-03-31T10:32:17;99351.0;;;14.39;79.02
36834;BME280;48003;52.084;5.224;2023-03-31T10:33:57;99327.0;;;14.25;79.89
36834;BME280;48003;52.084;5.224;2023-03-31T10:35:35;99337.0;;;14.32;79.36
36834;BME280;48003;52.084;5.224;2023-03-31T10:38:53;99342.0;;;14.53;78.33
36834;BME280;48003;52.084;5.224;2023-03-31T10:40:31;99319.0;;;14.5;77.22
36834;BME280;48003;52.084;5.224;2023-03-31T10:42:08;99333.0;;;14.53;78.17
36834;BME280;48003;52.084;5.224;2023-03-31T10:43:48;99327.0;;;14.24;78.12
36834;BME280;48003;52.084;5.224;2023-03-31T10:47:15;99331.0;;;14.46;79.02
36834;BME280;48003;52.084;5.224;2023-03-31T10:48:53;99322.0;;;14.27;79.78
36834;BME280;48003;52.084;5.224;2023-03-31T10:50:31;99326.0;;;14.25;78.58
36834;BME280;48003;52.084;5.224;2023-03-31T10:52:16;99328.0;;;14.26;79.91
36834;BME280;48003;52.084;5.224;2023-03-31T10:55:51;99341.0;;;14.7;78.11
36834;BME280;48003;52.084;5.224;2023-03-31T10:58:23;99316.0;;;14.53;77.8
36834;BME280;48003;52.084;5.224;2023-03-31T11:00:11;99322.0;;;14.36;79.58
36834;BME280;48003;52.084;5.224;2023-03-31T11:02:03;99325.0;;;14.59;77.8
36834;BME280;48003;52.084;5.224;2023-03-31T11:05:13;99319.0;;;14.03;81.55
36834;BME280;48003;52.084;5.224;2023-03-31T11:06:59;99330.0;;;14.0;81.64
36834;BME280;48003;52.084;5.224;2023-03-31T11:10:50;99315.0;;;14.16;82.21
36834;BME280;48003;52.084;5.224;2023-03-31T11:12:33;99311.0;;;14.18;83.32
36834;BME280;48003;52.084;5.224;2023-03-31T11:14:20;99311.0;;;13.94;83.97
36834;BME280;48003;52.084;5.224;2023-03-31T11:16:10;99306.0;;;13.83;84.43
36834;BME280;48003;52.084;5.224;2023-03-31T11:18:04;99300.0;;;14.27;82.97
36834;BME280;48003;52.084;5.224;2023-03-31T11:19:51;99312.0;;;14.1;82.05
36834;BME280;48003;52.084;5.224;2023-03-31T11:21:37;99315.0;;;14.12;82.8
36834;BME280;48003;52.084;5.224;2023-03-31T11:25:18;99321.0;;;14.29;82.53
36834;BME280;48003;52.084;5.224;2023-03-31T11:27:02;99309.0;;;13.86;83.61
36834;BME280;48003;52.084;5.224;2023-03-31T11:28:57;99308.0;;;14.02;83.47
36834;BME280;48003;52.084;5.224;2023-03-31T11:30:41;99305.0;;;14.01;83.76